Time;durP1;ratioP1;P1;durP2;ratioP2;P2;SDS_P1;SDS_P2;PMS_P1;PMS_P2;Temp;Humidity;BMP_temperature;BMP_pressure;BME280_temperature;BME280_humidity;BME280_pressure;Samples;Min_cycle;Max_cycle;Signal;HPM_P1;HPM_P2
2023/01/19 00:01:12;;;;;;;3.45;2.95;;;;;;;;;;4957958;28;20106;-87
2023/01/19 00:03:38;;;;;;;6.32;4.03;;;;;;;;;;4957285;28;20509;-87
2023/01/19 00:06:06;;;;;;;7.47;4.30;;;;;;;;;;4957339;28;20459;-87
2023/01/19 00:08:33;;;;;;;5.35;4.97;;;;;;;;;;4957571;28;20102;-87
2023/01/19 00:10:59;;;;;;;4.03;3.75;;;;;;;;;;4957199;28;20047;-87
2023/01/19 00:13:26;;;;;;;15.10;5.90;;;;;;;;;;4956962;28;20463;-86
2023/01/19 00:15:52;;;;;;;4.45;4.18;;;;;;;;;;4956841;28;20059;-88
2023/01/19 00:18:19;;;;;;;2.90;2.65;;;;;;;;;;4956829;28;20386;-87
2023/01/19 00:20:46;;;;;;;5.28;4.93;;;;;;;;;;4957616;28;20059;-87
2023/01/19 00:23:14;;;;;;;5.60;3.58;;;;;;;;;;4957157;28;20497;-87
2023/01/19 00:25:42;;;;;;;7.22;4.47;;;;;;;;;;4956824;28;20051;-86
2023/01/19 00:28:09;;;;;;;13.57;6.63;;;;;;;;;;4956888;28;20115;-87
2023/01/19 00:30:35;;;;;;;2.97;2.78;;;;;;;;;;4957427;28;20119;-87
2023/01/19 00:33:02;;;;;;;12.90;4.65;;;;;;;;;;4956670;28;20051;-87
2023/01/19 00:35:28;;;;;;;4.47;3.50;;;;;;;;;;4956274;28;20048;-87
2023/01/19 00:37:55;;;;;;;4.47;4.18;;;;;;;;;;4956504;28;20062;-86
2023/01/19 00:40:23;;;;;;;8.23;2.65;;;;;;;;;;4956876;28;20102;-86
2023/01/19 00:42:50;;;;;;;4.22;3.92;;;;;;;;;;4956890;28;20114;-87
2023/01/19 00:45:18;;;;;;;10.73;4.47;;;;;;;;;;4956883;28;20465;-85
2023/01/19 00:47:44;;;;;;;2.95;2.65;;;;;;;;;;4957855;28;20224;-86
2023/01/19 00:50:12;;;;;;;6.07;5.53;;;;;;;;;;4956527;28;20047;-87
2023/01/19 00:52:38;;;;;;;8.48;3.97;;;;;;;;;;4956359;28;20047;-86
2023/01/19 00:55:05;;;;;;;6.82;4.00;;;;;;;;;;4956644;28;20051;-86
2023/01/19 00:57:35;;;;;;;9.05;4.40;;;;;;;;;;4957045;28;20055;-87
2023/01/19 01:00:02;;;;;;;6.72;4.47;;;;;;;;;;4956079;28;20047;-87
2023/01/19 01:02:30;;;;;;;13.32;4.93;;;;;;;;;;4955917;28;20051;-87
2023/01/19 01:04:57;;;;;;;9.45;3.20;;;;;;;;;;4956412;28;20456;-87
2023/01/19 01:07:24;;;;;;;4.15;2.90;;;;;;;;;;4956880;28;20047;-87
2023/01/19 01:09:50;;;;;;;2.78;2.58;;;;;;;;;;4956458;28;20051;-87
2023/01/19 01:12:17;;;;;;;10.68;3.38;;;;;;;;;;4957745;28;20102;-87
2023/01/19 01:14:45;;;;;;;4.20;2.45;;;;;;;;;;4957934;28;20047;-87
2023/01/19 01:17:13;;;;;;;12.85;6.35;;;;;;;;;;4956708;28;20051;-88
2023/01/19 01:19:39;;;;;;;6.35;5.95;;;;;;;;;;4955880;28;20087;-87
2023/01/19 01:22:06;;;;;;;5.47;3.38;;;;;;;;;;4956721;28;20051;-87
2023/01/19 01:24:32;;;;;;;5.65;4.93;;;;;;;;;;4956054;28;20051;-88
2023/01/19 01:26:59;;;;;;;3.75;3.58;;;;;;;;;;4955600;28;20051;-88
2023/01/19 01:29:25;;;;;;;6.00;3.92;;;;;;;;;;4955463;28;20098;-87
2023/01/19 01:31:53;;;;;;;7.20;4.40;;;;;;;;;;4955953;28;20051;-87
2023/01/19 01:34:20;;;;;;;3.92;2.80;;;;;;;;;;4955939;28;20051;-87
2023/01/19 01:36:46;;;;;;;5.20;2.78;;;;;;;;;;4956022;28;20068;-88
2023/01/19 01:39:13;;;;;;;4.53;4.18;;;;;;;;;;4956952;28;20133;-87
2023/01/19 01:41:39;;;;;;;12.65;6.63;;;;;;;;;;4955619;28;20047;-87
2023/01/19 01:44:20;;;;;;;7.85;3.60;;;;;;;;;;4955240;28;20055;-87
2023/01/19 01:46:47;;;;;;;4.63;4.22;;;;;;;;;;4956694;28;20492;-88
2023/01/19 01:49:16;;;;;;;8.88;3.55;;;;;;;;;;4955846;28;20118;-88
2023/01/19 01:51:45;;;;;;;4.72;4.32;;;;;;;;;;4955094;28;20090;-88
2023/01/19 01:54:16;;;;;;;6.65;4.57;;;;;;;;;;4955440;28;20058;-88
2023/01/19 01:56:43;;;;;;;6.32;4.00;;;;;;;;;;4954874;28;20138;-87
2023/01/19 01:59:12;;;;;;;4.78;3.75;;;;;;;;;;4955479;28;20055;-87
2023/01/19 02:04:25;;;;;;;5.80;5.25;;;;;;;;;;4954977;29;20070;-88
2023/01/19 02:15:05;;;;;;;5.28;3.28;;;;;;;;;;4955152;29;20058;-87
2023/01/19 02:17:32;;;;;;;5.40;3.67;;;;;;;;;;4954875;28;20075;-85
2023/01/19 02:20:00;;;;;;;2.88;2.67;;;;;;;;;;4955050;28;20106;-86
2023/01/19 02:22:34;;;;;;;12.38;3.08;;;;;;;;;;4955698;28;20072;-86
2023/01/19 02:25:02;;;;;;;4.15;3.90;;;;;;;;;;4955170;28;20416;-86
2023/01/19 02:27:31;;;;;;;8.43;3.80;;;;;;;;;;4958476;28;20564;-87
2023/01/19 02:29:58;;;;;;;12.95;3.35;;;;;;;;;;4956180;28;20505;-87
2023/01/19 02:32:25;;;;;;;7.57;3.85;;;;;;;;;;4956503;28;20133;-87
2023/01/19 02:34:52;;;;;;;13.00;5.60;;;;;;;;;;4955244;28;20059;-87
2023/01/19 02:37:19;;;;;;;5.00;3.63;;;;;;;;;;4955508;28;20057;-88
2023/01/19 02:39:49;;;;;;;4.05;3.58;;;;;;;;;;4954999;28;20055;-87
2023/01/19 02:42:18;;;;;;;4.60;4.28;;;;;;;;;;4954941;28;20062;-87
2023/01/19 02:44:47;;;;;;;8.50;4.78;;;;;;;;;;4954790;28;20047;-88
2023/01/19 02:47:13;;;;;;;4.40;4.10;;;;;;;;;;4954695;28;20469;-88
2023/01/19 02:49:40;;;;;;;13.07;4.28;;;;;;;;;;4955179;28;20055;-88
2023/01/19 02:52:10;;;;;;;7.30;3.65;;;;;;;;;;4955045;28;20055;-88
2023/01/19 02:54:39;;;;;;;3.10;2.90;;;;;;;;;;4958494;28;20054;-88
2023/01/19 02:57:26;;;;;;;7.95;3.53;;;;;;;;;;4958367;28;20047;-88
2023/01/19 03:00:08;;;;;;;2.70;2.50;;;;;;;;;;4954853;28;20043;-87
2023/01/19 03:02:46;;;;;;;6.47;3.28;;;;;;;;;;4956835;28;20055;-87
2023/01/19 03:05:21;;;;;;;4.03;2.88;;;;;;;;;;4958697;28;20055;-88
2023/01/19 03:07:51;;;;;;;4.57;2.42;;;;;;;;;;4958291;28;20055;-88
2023/01/19 03:10:19;;;;;;;3.78;3.53;;;;;;;;;;4958441;28;20078;-87
2023/01/19 03:12:49;;;;;;;7.15;4.70;;;;;;;;;;4958408;28;20047;-88
2023/01/19 03:15:18;;;;;;;7.03;4.13;;;;;;;;;;4958565;28;20047;-88
2023/01/19 03:17:48;;;;;;;3.35;3.05;;;;;;;;;;4958094;28;20122;-87
2023/01/19 03:20:18;;;;;;;5.72;3.47;;;;;;;;;;4958182;28;20489;-87
2023/01/19 03:22:46;;;;;;;6.75;3.70;;;;;;;;;;4958331;28;20129;-88
2023/01/19 03:25:14;;;;;;;5.43;4.50;;;;;;;;;;4958252;28;20047;-88
2023/01/19 03:27:42;;;;;;;8.75;4.75;;;;;;;;;;4958336;28;20058;-88
2023/01/19 03:30:11;;;;;;;4.15;3.80;;;;;;;;;;4957651;28;20099;-88
2023/01/19 03:32:40;;;;;;;4.05;3.80;;;;;;;;;;4957929;28;20524;-87
2023/01/19 03:35:11;;;;;;;6.40;5.95;;;;;;;;;;4957896;28;20084;-85
2023/01/19 03:37:40;;;;;;;3.80;3.60;;;;;;;;;;4957980;28;20465;-86
2023/01/19 03:40:07;;;;;;;5.03;4.10;;;;;;;;;;4957913;28;20121;-87
2023/01/19 03:42:35;;;;;;;8.50;4.85;;;;;;;;;;4958113;28;20059;-87
2023/01/19 03:45:02;;;;;;;14.55;7.95;;;;;;;;;;4957933;28;20051;-88
2023/01/19 03:47:29;;;;;;;15.65;4.72;;;;;;;;;;4957078;28;20106;-88
2023/01/19 03:49:56;;;;;;;3.45;3.25;;;;;;;;;;4957456;28;20051;-87
2023/01/19 03:52:32;;;;;;;6.05;4.15;;;;;;;;;;4957891;28;20059;-87
2023/01/19 03:54:59;;;;;;;10.95;4.05;;;;;;;;;;4957754;28;20052;-87
2023/01/19 03:57:25;;;;;;;3.97;3.78;;;;;;;;;;4957612;28;20051;-87
2023/01/19 03:59:52;;;;;;;2.58;2.38;;;;;;;;;;4957594;28;20051;-87
2023/01/19 04:02:19;;;;;;;2.67;2.25;;;;;;;;;;4957625;28;20826;-88
2023/01/19 04:04:45;;;;;;;10.60;3.55;;;;;;;;;;4956531;28;20054;-88
2023/01/19 04:07:12;;;;;;;4.90;4.25;;;;;;;;;;4956886;28;20493;-88
2023/01/19 04:09:40;;;;;;;5.78;5.25;;;;;;;;;;4957155;28;20118;-87
2023/01/19 04:12:06;;;;;;;3.78;2.92;;;;;;;;;;4957041;28;20047;-87
2023/01/19 04:14:33;;;;;;;2.25;2.05;;;;;;;;;;4957013;28;20118;-87
2023/01/19 04:16:59;;;;;;;4.60;3.47;;;;;;;;;;4957157;28;20055;-87
2023/01/19 04:19:26;;;;;;;3.10;2.78;;;;;;;;;;4956842;28;20493;-87
2023/01/19 04:21:54;;;;;;;2.85;2.58;;;;;;;;;;4956818;28;20110;-87
2023/01/19 04:24:20;;;;;;;3.47;3.08;;;;;;;;;;4956784;28;20055;-87
2023/01/19 04:26:50;;;;;;;2.20;2.10;;;;;;;;;;4957073;28;20055;-87
2023/01/19 04:29:17;;;;;;;17.05;2.90;;;;;;;;;;4956993;28;20055;-87
2023/01/19 04:31:43;;;;;;;13.75;3.15;;;;;;;;;;4956798;28;20055;-87
2023/01/19 04:34:10;;;;;;;6.07;2.03;;;;;;;;;;4957098;28;20124;-88
2023/01/19 04:36:36;;;;;;;4.10;3.72;;;;;;;;;;4956887;28;20223;-87
2023/01/19 04:39:03;;;;;;;4.45;2.90;;;;;;;;;;4956101;28;20051;-87
2023/01/19 04:41:30;;;;;;;3.97;3.58;;;;;;;;;;4956403;28;20509;-87
2023/01/19 04:43:58;;;;;;;2.78;2.58;;;;;;;;;;4956484;28;20051;-87
2023/01/19 04:46:24;;;;;;;4.05;2.08;;;;;;;;;;4956287;28;20522;-87
2023/01/19 04:48:51;;;;;;;4.15;3.25;;;;;;;;;;4956797;28;20047;-87
2023/01/19 04:51:17;;;;;;;2.42;1.95;;;;;;;;;;4956942;28;20055;-87
2023/01/19 04:53:44;;;;;;;7.45;4.22;;;;;;;;;;4956457;28;20102;-87
2023/01/19 04:56:11;;;;;;;9.57;2.90;;;;;;;;;;4956223;28;20560;-87
2023/01/19 04:58:37;;;;;;;4.32;3.45;;;;;;;;;;4956231;28;20055;-87
2023/01/19 05:01:08;;;;;;;8.60;5.05;;;;;;;;;;4955916;28;20483;-87
2023/01/19 05:03:35;;;;;;;4.78;3.83;;;;;;;;;;4955654;28;20051;-86
2023/01/19 05:06:01;;;;;;;6.28;5.15;;;;;;;;;;4956335;28;20084;-87
2023/01/19 05:08:28;;;;;;;9.80;5.75;;;;;;;;;;4955938;28;20055;-85
2023/01/19 05:10:56;;;;;;;7.35;5.78;;;;;;;;;;4956253;28;20469;-87
2023/01/19 05:13:22;;;;;;;3.13;2.92;;;;;;;;;;4956477;28;20050;-87
2023/01/19 05:15:49;;;;;;;2.92;2.78;;;;;;;;;;4954947;28;20799;-86
2023/01/19 05:18:17;;;;;;;3.70;3.40;;;;;;;;;;4956241;28;20047;-87
2023/01/19 05:20:43;;;;;;;4.45;2.58;;;;;;;;;;4956314;28;20175;-87
2023/01/19 05:23:10;;;;;;;8.25;4.80;;;;;;;;;;4955944;28;20058;-87
2023/01/19 05:25:36;;;;;;;4.03;3.63;;;;;;;;;;4956338;28;20122;-87
2023/01/19 05:28:03;;;;;;;14.00;3.88;;;;;;;;;;4956062;28;20055;-87
2023/01/19 05:30:29;;;;;;;16.67;3.92;;;;;;;;;;4956232;28;20497;-87
2023/01/19 05:32:56;;;;;;;7.00;4.25;;;;;;;;;;4956693;28;20054;-88
2023/01/19 05:35:23;;;;;;;5.22;3.17;;;;;;;;;;4966587;28;20063;-88
2023/01/19 05:37:50;;;;;;;24.63;7.88;;;;;;;;;;4963530;28;20051;-88
2023/01/19 05:40:16;;;;;;;6.68;4.85;;;;;;;;;;4966799;28;20476;-87
2023/01/19 05:42:43;;;;;;;5.40;4.90;;;;;;;;;;4967861;28;20051;-86
2023/01/19 05:45:10;;;;;;;7.47;4.18;;;;;;;;;;4960839;28;20548;-87
2023/01/19 05:47:37;;;;;;;4.88;3.35;;;;;;;;;;4955221;28;20493;-88
2023/01/19 05:50:04;;;;;;;6.20;3.15;;;;;;;;;;4955782;28;20118;-87
2023/01/19 05:52:31;;;;;;;12.98;4.45;;;;;;;;;;4955800;28;20106;-87
2023/01/19 05:54:58;;;;;;;5.22;3.78;;;;;;;;;;4955798;28;20051;-88
2023/01/19 05:57:25;;;;;;;7.10;3.35;;;;;;;;;;4948332;28;20568;-87
2023/01/19 05:59:51;;;;;;;3.67;3.28;;;;;;;;;;4955661;29;20047;-87
2023/01/19 06:02:17;;;;;;;3.67;2.97;;;;;;;;;;4955649;29;20055;-88
2023/01/19 06:04:44;;;;;;;14.98;4.25;;;;;;;;;;4954907;29;20129;-88
2023/01/19 06:07:11;;;;;;;3.47;3.05;;;;;;;;;;4955204;29;20130;-88
2023/01/19 06:09:38;;;;;;;6.28;4.15;;;;;;;;;;4955528;28;20052;-87
2023/01/19 06:12:05;;;;;;;4.70;4.25;;;;;;;;;;4955584;28;20055;-88
2023/01/19 06:14:32;;;;;;;3.90;3.50;;;;;;;;;;4955393;28;20051;-87
2023/01/19 06:16:58;;;;;;;6.50;4.13;;;;;;;;;;4955637;28;20149;-88
2023/01/19 06:19:25;;;;;;;20.90;6.43;;;;;;;;;;4955290;28;20058;-87
2023/01/19 06:21:52;;;;;;;6.00;4.70;;;;;;;;;;4955022;28;20055;-87
2023/01/19 06:24:18;;;;;;;5.40;4.93;;;;;;;;;;4955469;28;20114;-87
2023/01/19 06:26:46;;;;;;;3.15;2.47;;;;;;;;;;4956405;28;20051;-88
2023/01/19 06:29:13;;;;;;;11.90;5.75;;;;;;;;;;4959324;28;20102;-88
2023/01/19 06:31:40;;;;;;;3.45;3.25;;;;;;;;;;4959170;28;20129;-88
2023/01/19 06:34:07;;;;;;;6.55;5.30;;;;;;;;;;4958995;28;20481;-91
2023/01/19 06:36:33;;;;;;;7.38;5.95;;;;;;;;;;4959977;28;20047;-93
2023/01/19 06:39:02;;;;;;;20.90;5.60;;;;;;;;;;4959810;28;20660;-94
2023/01/19 06:41:28;;;;;;;10.57;6.22;;;;;;;;;;4958880;28;20098;-88
2023/01/19 06:43:56;;;;;;;10.15;7.13;;;;;;;;;;4958921;28;20059;-88
2023/01/19 06:46:23;;;;;;;6.57;4.85;;;;;;;;;;4948258;28;20055;-88
2023/01/19 06:48:51;;;;;;;7.65;5.88;;;;;;;;;;4958897;28;20461;-88
2023/01/19 06:51:17;;;;;;;12.75;8.18;;;;;;;;;;4966188;28;20051;-89
2023/01/19 06:53:44;;;;;;;6.85;4.50;;;;;;;;;;4977198;28;20055;-89
2023/01/19 06:56:10;;;;;;;5.88;5.38;;;;;;;;;;4973925;28;20051;-88
2023/01/19 06:58:37;;;;;;;12.38;4.13;;;;;;;;;;4958546;28;20050;-88
2023/01/19 07:01:06;;;;;;;8.32;7.57;;;;;;;;;;4957095;28;20098;-89
2023/01/19 07:03:33;;;;;;;13.95;4.38;;;;;;;;;;4958112;28;20063;-88
2023/01/19 07:06:01;;;;;;;7.28;5.13;;;;;;;;;;4956273;28;20461;-88
2023/01/19 07:08:27;;;;;;;11.77;4.10;;;;;;;;;;4936992;29;20056;-89
2023/01/19 07:10:58;;;;;;;7.07;3.63;;;;;;;;;;4956481;29;20051;-89
2023/01/19 07:13:25;;;;;;;22.73;5.05;;;;;;;;;;4955602;29;20378;-88
2023/01/19 07:15:51;;;;;;;4.03;3.78;;;;;;;;;;4958144;28;20110;-88
2023/01/19 07:18:19;;;;;;;8.05;3.80;;;;;;;;;;4958104;28;20055;-88
2023/01/19 07:20:48;;;;;;;14.05;4.20;;;;;;;;;;4958165;28;20138;-88
2023/01/19 07:23:14;;;;;;;3.70;2.83;;;;;;;;;;4957932;28;20102;-87
2023/01/19 07:25:41;;;;;;;4.00;3.75;;;;;;;;;;4957585;28;20079;-88
2023/01/19 07:28:08;;;;;;;4.57;4.25;;;;;;;;;;4958284;28;20059;-86
2023/01/19 07:30:34;;;;;;;11.27;2.80;;;;;;;;;;4957942;28;20055;-85
2023/01/19 07:33:01;;;;;;;4.70;4.07;;;;;;;;;;4957553;28;20059;-89
2023/01/19 07:35:29;;;;;;;9.38;4.15;;;;;;;;;;4955070;28;20053;-88
2023/01/19 07:37:56;;;;;;;4.10;3.50;;;;;;;;;;4956720;28;20107;-88
2023/01/19 07:40:22;;;;;;;4.45;4.05;;;;;;;;;;4957127;28;20059;-89
2023/01/19 07:42:49;;;;;;;9.95;3.85;;;;;;;;;;4957315;28;20099;-88
2023/01/19 07:45:16;;;;;;;8.27;3.28;;;;;;;;;;4947439;29;20098;-89
2023/01/19 07:47:42;;;;;;;4.95;4.50;;;;;;;;;;4958100;28;20571;-89
2023/01/19 07:50:10;;;;;;;3.58;3.33;;;;;;;;;;4957598;28;20727;-88
2023/01/19 07:52:38;;;;;;;5.57;3.78;;;;;;;;;;4955765;28;20047;-87
2023/01/19 07:55:05;;;;;;;5.70;3.45;;;;;;;;;;4945779;29;20055;-89
2023/01/19 07:57:31;;;;;;;3.60;2.92;;;;;;;;;;4956230;29;20406;-88
2023/01/19 07:59:58;;;;;;;13.80;4.13;;;;;;;;;;4957497;28;20102;-88
2023/01/19 08:02:25;;;;;;;7.35;5.22;;;;;;;;;;4956867;28;20701;-87
2023/01/19 08:04:51;;;;;;;6.10;3.80;;;;;;;;;;4956885;28;20067;-87
2023/01/19 08:07:18;;;;;;;7.47;4.07;;;;;;;;;;4956689;28;20043;-88
2023/01/19 08:09:46;;;;;;;7.15;6.03;;;;;;;;;;4951090;29;20051;-88
2023/01/19 08:12:12;;;;;;;7.75;4.28;;;;;;;;;;4957397;28;20051;-88
2023/01/19 08:14:39;;;;;;;9.88;3.58;;;;;;;;;;4956420;28;20493;-86
2023/01/19 08:17:05;;;;;;;4.80;3.42;;;;;;;;;;4956990;28;20118;-87
2023/01/19 08:19:31;;;;;;;9.57;3.53;;;;;;;;;;4956741;28;20118;-87
2023/01/19 08:21:58;;;;;;;9.95;3.85;;;;;;;;;;4956709;28;20071;-87
2023/01/19 08:24:27;;;;;;;3.95;3.65;;;;;;;;;;4957270;28;20047;-86
2023/01/19 08:26:59;;;;;;;9.48;4.40;;;;;;;;;;4957167;28;20054;-87
2023/01/19 08:29:26;;;;;;;4.18;3.65;;;;;;;;;;4956638;28;20110;-86
2023/01/19 08:31:54;;;;;;;7.40;4.70;;;;;;;;;;4956805;28;20051;-87
2023/01/19 08:34:20;;;;;;;9.55;3.33;;;;;;;;;;4956953;28;20134;-87
2023/01/19 08:36:47;;;;;;;3.08;2.88;;;;;;;;;;4956704;28;20109;-86
2023/01/19 08:39:13;;;;;;;5.15;4.05;;;;;;;;;;4956775;28;20141;-86
2023/01/19 08:41:40;;;;;;;6.30;3.92;;;;;;;;;;4956600;28;20110;-87
2023/01/19 08:44:08;;;;;;;5.45;3.22;;;;;;;;;;4956285;28;20058;-86
2023/01/19 08:46:34;;;;;;;6.13;3.85;;;;;;;;;;4956601;28;20456;-87
2023/01/19 08:49:01;;;;;;;4.05;3.75;;;;;;;;;;4956255;28;20102;-88
2023/01/19 08:51:27;;;;;;;13.93;6.45;;;;;;;;;;4955636;28;20453;-87
2023/01/19 08:53:54;;;;;;;9.30;4.45;;;;;;;;;;4954361;28;20043;-86
2023/01/19 08:56:20;;;;;;;5.28;4.78;;;;;;;;;;4956637;28;20374;-88
2023/01/19 08:58:47;;;;;;;15.07;4.50;;;;;;;;;;4956516;29;20058;-87
2023/01/19 09:01:15;;;;;;;10.90;5.13;;;;;;;;;;4956452;29;20082;-87
2023/01/19 09:03:42;;;;;;;6.57;4.70;;;;;;;;;;4955891;28;20783;-86
2023/01/19 09:06:09;;;;;;;13.02;4.32;;;;;;;;;;4956386;28;20096;-87
2023/01/19 09:08:36;;;;;;;6.10;4.43;;;;;;;;;;4956196;28;20098;-87
2023/01/19 09:11:04;;;;;;;4.45;3.33;;;;;;;;;;4956327;28;20106;-87
2023/01/19 09:13:30;;;;;;;5.50;3.15;;;;;;;;;;4955777;29;20082;-86
2023/01/19 09:15:57;;;;;;;7.85;3.80;;;;;;;;;;4955690;28;20047;-87
2023/01/19 09:18:24;;;;;;;5.90;4.68;;;;;;;;;;4955813;28;20130;-88
2023/01/19 09:20:51;;;;;;;4.85;3.83;;;;;;;;;;4956079;28;20055;-88
2023/01/19 09:23:19;;;;;;;6.65;3.80;;;;;;;;;;4955833;28;20055;-87
2023/01/19 09:25:46;;;;;;;13.40;3.42;;;;;;;;;;4955954;28;20550;-88
2023/01/19 09:28:14;;;;;;;4.20;3.88;;;;;;;;;;4955812;28;20055;-87
2023/01/19 09:30:41;;;;;;;5.40;5.00;;;;;;;;;;4955846;28;20063;-87
2023/01/19 09:33:10;;;;;;;2.95;2.75;;;;;;;;;;4950200;28;20102;-87
2023/01/19 09:35:38;;;;;;;6.80;3.53;;;;;;;;;;4936525;29;20095;-86
2023/01/19 09:38:06;;;;;;;5.15;3.33;;;;;;;;;;4937059;29;20059;-86
2023/01/19 09:40:33;;;;;;;10.48;4.03;;;;;;;;;;4947360;29;20055;-87
2023/01/19 09:43:03;;;;;;;6.70;3.03;;;;;;;;;;4955828;28;20469;-87
2023/01/19 09:45:34;;;;;;;3.58;3.28;;;;;;;;;;4955607;28;20579;-87
2023/01/19 09:48:00;;;;;;;;;;;;;;;;;;4956341;28;20114;-86
2023/01/19 09:50:28;;;;;;;5.40;2.58;;;;;;;;;;4955474;28;19973;-86
2023/01/19 09:52:59;;;;;;;3.25;3.10;;;;;;;;;;4955267;28;20058;-86
2023/01/19 09:55:27;;;;;;;8.75;4.50;;;;;;;;;;4955536;28;20051;-85
2023/01/19 09:57:53;;;;;;;14.50;3.92;;;;;;;;;;4955240;28;20089;-87
2023/01/19 10:00:21;;;;;;;5.53;3.92;;;;;;;;;;4955650;28;20390;-88
2023/01/19 10:02:50;;;;;;;5.25;3.85;;;;;;;;;;4954369;28;20460;-87
2023/01/19 10:05:23;;;;;;;4.10;3.28;;;;;;;;;;4955652;28;20086;-86
2023/01/19 10:08:09;;;;;;;4.70;4.30;;;;;;;;;;4955498;28;20390;-87
2023/01/19 10:10:36;;;;;;;10.88;5.05;;;;;;;;;;4955760;28;20051;-87
2023/01/19 10:13:09;;;;;;;4.05;3.70;;;;;;;;;;4955298;28;20047;-87
2023/01/19 10:15:45;;;;;;;8.63;2.88;;;;;;;;;;4955172;28;20493;-87
2023/01/19 10:18:13;;;;;;;6.38;4.38;;;;;;;;;;4955233;28;20130;-87
2023/01/19 10:20:42;;;;;;;5.05;4.50;;;;;;;;;;4955246;28;20508;-87
2023/01/19 10:23:18;;;;;;;4.35;3.78;;;;;;;;;;4955068;28;20062;-87
2023/01/19 10:25:45;;;;;;;;;;;;;;;;;;4940747;29;20043;-87
2023/01/19 10:28:12;;;;;;;2.80;2.60;;;;;;;;;;4955050;28;20443;-87
2023/01/19 10:30:41;;;;;;;3.20;3.00;;;;;;;;;;4955275;28;20118;-87
2023/01/19 10:33:08;;;;;;;6.10;5.75;;;;;;;;;;4955583;28;20106;-87
2023/01/19 10:35:35;;;;;;;8.90;6.68;;;;;;;;;;4954757;28;20059;-86
2023/01/19 10:38:02;;;;;;;5.07;4.68;;;;;;;;;;4955612;28;20075;-87
2023/01/19 10:40:32;;;;;;;7.65;5.55;;;;;;;;;;4955137;28;20043;-87
2023/01/19 10:42:59;;;;;;;4.35;4.15;;;;;;;;;;4955406;28;20051;-87
2023/01/19 10:45:28;;;;;;;4.93;4.55;;;;;;;;;;4954925;28;20055;-86
2023/01/19 10:47:55;;;;;;;5.72;4.90;;;;;;;;;;4954934;28;20052;-87
2023/01/19 10:50:23;;;;;;;8.52;5.45;;;;;;;;;;4955089;28;20051;-89
2023/01/19 10:52:50;;;;;;;5.97;5.47;;;;;;;;;;4954959;28;20055;-87
2023/01/19 10:55:23;;;;;;;5.93;5.53;;;;;;;;;;4955253;28;20412;-87
2023/01/19 10:57:52;;;;;;;4.97;4.57;;;;;;;;;;4953415;28;20047;-87
2023/01/19 11:00:29;;;;;;;10.45;4.78;;;;;;;;;;4953962;28;20055;-87
2023/01/19 11:02:55;;;;;;;6.55;6.03;;;;;;;;;;4938658;29;20180;-87
2023/01/19 11:05:23;;;;;;;6.82;6.32;;;;;;;;;;4955033;28;20051;-87
2023/01/19 11:07:50;;;;;;;9.30;4.38;;;;;;;;;;4954403;28;20106;-87
2023/01/19 11:10:21;;;;;;;5.60;5.30;;;;;;;;;;4954738;28;20047;-85
2023/01/19 11:12:55;;;;;;;8.90;4.75;;;;;;;;;;4955032;28;20059;-87
2023/01/19 11:15:25;;;;;;;6.53;6.00;;;;;;;;;;4958168;28;20469;-86
2023/01/19 11:17:52;;;;;;;16.48;4.78;;;;;;;;;;4957491;28;20477;-87
2023/01/19 11:20:21;;;;;;;4.80;3.80;;;;;;;;;;4958018;29;20054;-87
2023/01/19 11:22:47;;;;;;;6.13;5.47;;;;;;;;;;4957976;29;20500;-87
2023/01/19 11:25:21;;;;;;;9.20;6.10;;;;;;;;;;4958398;28;20114;-87
2023/01/19 11:27:50;;;;;;;6.35;6.00;;;;;;;;;;4957859;28;20565;-88
2023/01/19 11:30:18;;;;;;;7.50;5.53;;;;;;;;;;4941705;28;20135;-86
2023/01/19 11:32:48;;;;;;;9.38;8.60;;;;;;;;;;4956456;29;20059;-88
2023/01/19 11:35:33;;;;;;;7.28;6.97;;;;;;;;;;4957698;28;20058;-86
2023/01/19 11:38:06;;;;;;;11.85;4.60;;;;;;;;;;4957825;28;20103;-87
2023/01/19 11:40:33;;;;;;;5.20;4.90;;;;;;;;;;4958083;28;20102;-87
2023/01/19 11:43:00;;;;;;;7.65;7.03;;;;;;;;;;4957945;28;20098;-87
2023/01/19 11:45:27;;;;;;;4.65;4.10;;;;;;;;;;4957954;28;20134;-87
2023/01/19 11:47:55;;;;;;;4.60;4.30;;;;;;;;;;4957316;28;20063;-86
2023/01/19 11:50:23;;;;;;;5.15;4.80;;;;;;;;;;4957809;28;20051;-88
2023/01/19 11:52:53;;;;;;;5.63;5.18;;;;;;;;;;4957901;28;21764;-89
2023/01/19 11:55:22;;;;;;;8.30;7.10;;;;;;;;;;4957472;28;20047;-87
2023/01/19 11:57:50;;;;;;;4.55;4.20;;;;;;;;;;4957603;28;20173;-89
2023/01/19 12:00:24;;;;;;;9.90;9.07;;;;;;;;;;4958594;28;20055;-88
2023/01/19 12:02:54;;;;;;;5.20;4.88;;;;;;;;;;4959086;28;20110;-87
2023/01/19 12:05:22;;;;;;;6.88;6.45;;;;;;;;;;4958055;28;20457;-87
2023/01/19 12:07:50;;;;;;;7.55;7.18;;;;;;;;;;4955740;28;20047;-86
2023/01/19 12:10:21;;;;;;;6.45;5.93;;;;;;;;;;4957205;28;20051;-87
2023/01/19 12:12:48;;;;;;;4.97;4.68;;;;;;;;;;4956680;29;20055;-88
2023/01/19 12:15:20;;;;;;;9.80;7.57;;;;;;;;;;4956042;29;20154;-87
2023/01/19 12:17:48;;;;;;;5.75;5.35;;;;;;;;;;4957267;28;20082;-87
2023/01/19 12:20:20;;;;;;;5.40;4.75;;;;;;;;;;4957428;29;20266;-87
2023/01/19 12:22:50;;;;;;;6.28;5.97;;;;;;;;;;4957132;28;20461;-86
2023/01/19 12:25:20;;;;;;;4.40;4.20;;;;;;;;;;4941311;29;20051;-87
2023/01/19 12:27:47;;;;;;;;;;;;;;;;;;4957182;28;20050;-87
2023/01/19 12:30:17;;;;;;;5.28;4.97;;;;;;;;;;4956783;28;20395;-87
2023/01/19 12:32:44;;;;;;;3.85;3.65;;;;;;;;;;4957503;28;20051;-87
2023/01/19 12:35:25;;;;;;;5.03;4.70;;;;;;;;;;4957480;28;20054;-87
2023/01/19 12:37:53;;;;;;;5.60;4.65;;;;;;;;;;4956886;29;20051;-86
2023/01/19 12:40:23;;;;;;;4.50;4.20;;;;;;;;;;4957507;28;20059;-86
2023/01/19 12:42:55;;;;;;;5.18;4.80;;;;;;;;;;4957456;28;20488;-87
2023/01/19 12:45:24;;;;;;;3.60;3.47;;;;;;;;;;4957379;28;20047;-87
2023/01/19 12:47:51;;;;;;;5.35;5.05;;;;;;;;;;4957362;28;20043;-87
2023/01/19 12:50:19;;;;;;;6.35;5.72;;;;;;;;;;4956424;28;20133;-87
2023/01/19 12:52:50;;;;;;;5.95;5.65;;;;;;;;;;4957156;28;20055;-87
2023/01/19 12:55:20;;;;;;;7.03;4.90;;;;;;;;;;4955344;28;20098;-87
2023/01/19 12:57:49;;;;;;;5.10;4.78;;;;;;;;;;4959698;28;20071;-88
2023/01/19 13:00:28;;;;;;;4.95;4.75;;;;;;;;;;4966296;28;20055;-87
2023/01/19 13:02:55;;;;;;;6.28;5.15;;;;;;;;;;4962420;28;20106;-87
2023/01/19 13:05:47;;;;;;;7.38;6.68;;;;;;;;;;4966287;28;20063;-86
2023/01/19 13:08:18;;;;;;;5.60;4.00;;;;;;;;;;4956255;28;20047;-86
2023/01/19 13:11:12;;;;;;;4.97;4.10;;;;;;;;;;4956515;28;20097;-87
2023/01/19 13:13:40;;;;;;;5.82;5.45;;;;;;;;;;4956757;28;20061;-87
2023/01/19 13:16:26;;;;;;;4.63;4.22;;;;;;;;;;4956191;28;20055;-87
2023/01/19 13:18:53;;;;;;;5.60;5.15;;;;;;;;;;4955895;28;20047;-87
2023/01/19 13:21:26;;;;;;;5.97;4.07;;;;;;;;;;4955322;28;20118;-86
2023/01/19 13:23:53;;;;;;;5.50;5.28;;;;;;;;;;4955229;28;20106;-85
2023/01/19 13:26:22;;;;;;;5.20;3.90;;;;;;;;;;4955593;28;20437;-87
2023/01/19 13:28:50;;;;;;;5.30;4.88;;;;;;;;;;4957134;28;20051;-85
2023/01/19 13:31:17;;;;;;;5.10;4.40;;;;;;;;;;4956207;28;20098;-85
2023/01/19 13:33:46;;;;;;;5.03;4.78;;;;;;;;;;4953021;28;20047;-86
2023/01/19 13:36:20;;;;;;;2.65;2.55;;;;;;;;;;4954774;28;20051;-86
2023/01/19 13:38:47;;;;;;;3.33;3.13;;;;;;;;;;4955582;28;20131;-85
2023/01/19 13:41:15;;;;;;;3.55;3.22;;;;;;;;;;4955548;28;20059;-86
2023/01/19 13:43:43;;;;;;;3.85;3.60;;;;;;;;;;4955533;28;20102;-85
2023/01/19 13:46:11;;;;;;;4.57;3.28;;;;;;;;;;4954495;28;20055;-86
2023/01/19 13:48:37;;;;;;;4.03;3.70;;;;;;;;;;4952837;28;20047;-86
2023/01/19 13:51:04;;;;;;;4.05;3.53;;;;;;;;;;4955672;28;20051;-85
2023/01/19 13:53:31;;;;;;;4.15;3.95;;;;;;;;;;4955105;29;20110;-86
2023/01/19 13:56:20;;;;;;;3.95;3.75;;;;;;;;;;4954989;28;20047;-85
2023/01/19 13:59:03;;;;;;;2.83;2.72;;;;;;;;;;4949622;28;20067;-86
2023/01/19 14:01:31;;;;;;;2.63;2.45;;;;;;;;;;4954247;29;20082;-88
2023/01/19 14:03:58;;;;;;;5.57;3.47;;;;;;;;;;4954703;28;20055;-85
2023/01/19 14:06:31;;;;;;;4.75;4.55;;;;;;;;;;4954987;29;20107;-85
2023/01/19 14:09:09;;;;;;;4.45;3.17;;;;;;;;;;4955245;28;20047;-85
2023/01/19 14:11:35;;;;;;;4.03;3.75;;;;;;;;;;4954809;28;20047;-86
2023/01/19 14:14:03;;;;;;;3.85;3.65;;;;;;;;;;4954915;28;20126;-85
2023/01/19 14:16:30;;;;;;;6.43;3.60;;;;;;;;;;4954828;28;20050;-85
2023/01/19 14:18:59;;;;;;;3.03;2.92;;;;;;;;;;4955307;29;20105;-84
2023/01/19 14:21:36;;;;;;;5.55;3.53;;;;;;;;;;4954905;28;20051;-84
2023/01/19 14:26:52;;;;;;;3.65;3.42;;;;;;;;;;4954959;29;20183;-85
2023/01/19 14:29:22;;;;;;;3.90;3.65;;;;;;;;;;4943706;28;20493;-84
2023/01/19 14:31:49;;;;;;;4.20;3.90;;;;;;;;;;4955255;29;20118;-84
2023/01/19 14:34:37;;;;;;;7.43;4.30;;;;;;;;;;4955251;28;20118;-84
2023/01/19 14:37:05;;;;;;;6.90;3.97;;;;;;;;;;4951389;28;20051;-84
2023/01/19 14:39:32;;;;;;;9.77;4.65;;;;;;;;;;4955762;28;20055;-84
2023/01/19 14:42:00;;;;;;;7.03;6.38;;;;;;;;;;4955182;28;20047;-84
2023/01/19 14:44:30;;;;;;;3.75;3.45;;;;;;;;;;4955209;28;20066;-83
2023/01/19 14:46:58;;;;;;;4.10;3.80;;;;;;;;;;4954615;28;20059;-83
2023/01/19 14:49:29;;;;;;;3.92;3.72;;;;;;;;;;4958156;29;20082;-84
2023/01/19 14:51:55;;;;;;;6.20;4.03;;;;;;;;;;4959115;28;20047;-84
2023/01/19 14:54:27;;;;;;;5.25;3.22;;;;;;;;;;4958207;28;20055;-85
2023/01/19 14:56:53;;;;;;;4.85;3.58;;;;;;;;;;4958790;28;20047;-84
2023/01/19 14:59:20;;;;;;;3.90;3.70;;;;;;;;;;4958719;28;20114;-84
2023/01/19 15:01:48;;;;;;;4.82;3.50;;;;;;;;;;4957953;28;20122;-85
2023/01/19 15:04:14;;;;;;;4.90;3.10;;;;;;;;;;4958734;28;20043;-85